sensor_id;sensor_type;location;lat;lon;timestamp;P1;durP1;ratioP1;P2;durP2;ratioP2
11135;SDS011;5622;50.840;4.948;2022-09-03T00:01:03;3.80;;;2.30;;
11135;SDS011;5622;50.840;4.948;2022-09-03T00:03:36;3.67;;;2.20;;
11135;SDS011;5622;50.840;4.948;2022-09-03T00:06:10;3.57;;;2.27;;
11135;SDS011;5622;50.840;4.948;2022-09-03T00:08:43;3.60;;;2.43;;
11135;SDS011;5622;50.840;4.948;2022-09-03T00:11:15;2.30;;;2.10;;
11135;SDS011;5622;50.840;4.948;2022-09-03T00:13:46;5.00;;;2.20;;
11135;SDS011;5622;50.840;4.948;2022-09-03T00:16:20;3.53;;;2.43;;
11135;SDS011;5622;50.840;4.948;2022-09-03T00:18:54;2.50;;;2.20;;
11135;SDS011;5622;50.840;4.948;2022-09-03T00:21:29;3.00;;;2.20;;
11135;SDS011;5622;50.840;4.948;2022-09-03T00:24:05;3.17;;;1.97;;
11135;SDS011;5622;50.840;4.948;2022-09-03T00:26:35;3.30;;;2.03;;
11135;SDS011;5622;50.840;4.948;2022-09-03T00:29:05;3.77;;;2.20;;
11135;SDS011;5622;50.840;4.948;2022-09-03T00:31:35;2.20;;;2.00;;
11135;SDS011;5622;50.840;4.948;2022-09-03T00:34:09;2.10;;;1.90;;
11135;SDS011;5622;50.840;4.948;2022-09-03T00:36:42;2.17;;;1.80;;
11135;SDS011;5622;50.840;4.948;2022-09-03T00:39:11;1.90;;;1.70;;
11135;SDS011;5622;50.840;4.948;2022-09-03T00:41:43;2.20;;;2.00;;
11135;SDS011;5622;50.840;4.948;2022-09-03T00:44:43;2.93;;;2.17;;
11135;SDS011;5622;50.840;4.948;2022-09-03T00:47:26;3.40;;;2.50;;
11135;SDS011;5622;50.840;4.948;2022-09-03T00:50:03;2.77;;;2.00;;
11135;SDS011;5622;50.840;4.948;2022-09-03T00:52:45;2.23;;;1.80;;
11135;SDS011;5622;50.840;4.948;2022-09-03T00:55:23;2.43;;;2.00;;
11135;SDS011;5622;50.840;4.948;2022-09-03T00:58:01;3.80;;;2.07;;
11135;SDS011;5622;50.840;4.948;2022-09-03T01:00:37;2.83;;;2.20;;
11135;SDS011;5622;50.840;4.948;2022-09-03T01:03:08;2.03;;;1.83;;
11135;SDS011;5622;50.840;4.948;2022-09-03T01:05:41;2.17;;;1.97;;
11135;SDS011;5622;50.840;4.948;2022-09-03T01:08:29;1.80;;;1.70;;
11135;SDS011;5622;50.840;4.948;2022-09-03T01:11:08;2.10;;;1.90;;
11135;SDS011;5622;50.840;4.948;2022-09-03T01:13:45;3.63;;;2.00;;
11135;SDS011;5622;50.840;4.948;2022-09-03T01:16:23;2.57;;;2.00;;
11135;SDS011;5622;50.840;4.948;2022-09-03T01:18:59;3.33;;;2.20;;
11135;SDS011;5622;50.840;4.948;2022-09-03T01:21:38;1.97;;;1.87;;
11135;SDS011;5622;50.840;4.948;2022-09-03T01:24:32;2.87;;;2.10;;
11135;SDS011;5622;50.840;4.948;2022-09-03T01:27:28;2.30;;;1.90;;
11135;SDS011;5622;50.840;4.948;2022-09-03T01:30:04;2.73;;;2.07;;
11135;SDS011;5622;50.840;4.948;2022-09-03T01:32:36;2.67;;;1.97;;
11135;SDS011;5622;50.840;4.948;2022-09-03T01:35:10;1.97;;;1.70;;
11135;SDS011;5622;50.840;4.948;2022-09-03T01:37:46;1.80;;;1.70;;
11135;SDS011;5622;50.840;4.948;2022-09-03T01:40:24;3.67;;;2.10;;
11135;SDS011;5622;50.840;4.948;2022-09-03T01:43:03;3.43;;;1.70;;
11135;SDS011;5622;50.840;4.948;2022-09-03T01:45:46;4.37;;;2.23;;
11135;SDS011;5622;50.840;4.948;2022-09-03T01:48:30;2.50;;;2.00;;
11135;SDS011;5622;50.840;4.948;2022-09-03T01:51:05;1.90;;;1.80;;
11135;SDS011;5622;50.840;4.948;2022-09-03T01:53:49;1.97;;;1.77;;
11135;SDS011;5622;50.840;4.948;2022-09-03T01:56:39;2.00;;;1.80;;
11135;SDS011;5622;50.840;4.948;2022-09-03T01:59:22;1.80;;;1.70;;
11135;SDS011;5622;50.840;4.948;2022-09-03T02:01:57;2.83;;;2.10;;
11135;SDS011;5622;50.840;4.948;2022-09-03T02:04:27;2.00;;;1.90;;
11135;SDS011;5622;50.840;4.948;2022-09-03T02:06:57;3.57;;;2.10;;
11135;SDS011;5622;50.840;4.948;2022-09-03T02:09:26;2.33;;;1.97;;
11135;SDS011;5622;50.840;4.948;2022-09-03T02:11:54;3.67;;;2.10;;
11135;SDS011;5622;50.840;4.948;2022-09-03T02:14:27;3.50;;;1.90;;
11135;SDS011;5622;50.840;4.948;2022-09-03T02:16:57;3.27;;;2.10;;
11135;SDS011;5622;50.840;4.948;2022-09-03T02:19:27;5.13;;;1.97;;
11135;SDS011;5622;50.840;4.948;2022-09-03T02:21:56;2.53;;;1.80;;
11135;SDS011;5622;50.840;4.948;2022-09-03T02:24:24;2.10;;;1.90;;
11135;SDS011;5622;50.840;4.948;2022-09-03T02:26:53;2.13;;;1.80;;
11135;SDS011;5622;50.840;4.948;2022-09-03T02:32:44;2.07;;;1.80;;
11135;SDS011;5622;50.840;4.948;2022-09-03T02:35:11;2.00;;;1.80;;
11135;SDS011;5622;50.840;4.948;2022-09-03T02:37:38;1.77;;;1.67;;
11135;SDS011;5622;50.840;4.948;2022-09-03T02:40:06;4.53;;;2.20;;
11135;SDS011;5622;50.840;4.948;2022-09-03T02:42:35;2.23;;;1.93;;
11135;SDS011;5622;50.840;4.948;2022-09-03T02:45:04;2.47;;;2.03;;
11135;SDS011;5622;50.840;4.948;2022-09-03T02:47:39;2.80;;;2.23;;
11135;SDS011;5622;50.840;4.948;2022-09-03T02:50:09;2.10;;;1.90;;
11135;SDS011;5622;50.840;4.948;2022-09-03T02:52:36;3.03;;;2.00;;
11135;SDS011;5622;50.840;4.948;2022-09-03T02:55:04;2.97;;;1.83;;
11135;SDS011;5622;50.840;4.948;2022-09-03T02:57:31;3.80;;;2.20;;
11135;SDS011;5622;50.840;4.948;2022-09-03T02:59:58;4.57;;;2.17;;
11135;SDS011;5622;50.840;4.948;2022-09-03T03:02:25;4.13;;;1.80;;
11135;SDS011;5622;50.840;4.948;2022-09-03T03:04:52;1.97;;;1.87;;
11135;SDS011;5622;50.840;4.948;2022-09-03T03:07:21;2.30;;;2.00;;
11135;SDS011;5622;50.840;4.948;2022-09-03T03:09:48;2.17;;;1.90;;
11135;SDS011;5622;50.840;4.948;2022-09-03T03:12:15;3.43;;;1.87;;
11135;SDS011;5622;50.840;4.948;2022-09-03T03:14:44;1.87;;;1.70;;
11135;SDS011;5622;50.840;4.948;2022-09-03T03:17:11;4.43;;;2.03;;
11135;SDS011;5622;50.840;4.948;2022-09-03T03:19:38;2.37;;;2.13;;
11135;SDS011;5622;50.840;4.948;2022-09-03T03:22:05;2.17;;;1.90;;
11135;SDS011;5622;50.840;4.948;2022-09-03T03:24:33;2.70;;;1.80;;
11135;SDS011;5622;50.840;4.948;2022-09-03T03:27:01;5.37;;;2.20;;
11135;SDS011;5622;50.840;4.948;2022-09-03T03:29:31;3.50;;;1.90;;
11135;SDS011;5622;50.840;4.948;2022-09-03T03:31:59;2.90;;;1.70;;
11135;SDS011;5622;50.840;4.948;2022-09-03T03:34:26;5.63;;;2.13;;
11135;SDS011;5622;50.840;4.948;2022-09-03T03:36:53;2.33;;;2.13;;
11135;SDS011;5622;50.840;4.948;2022-09-03T03:39:20;2.13;;;1.97;;
11135;SDS011;5622;50.840;4.948;2022-09-03T03:41:49;2.87;;;2.00;;
11135;SDS011;5622;50.840;4.948;2022-09-03T03:44:16;2.70;;;1.67;;
11135;SDS011;5622;50.840;4.948;2022-09-03T03:46:44;2.20;;;2.00;;
11135;SDS011;5622;50.840;4.948;2022-09-03T03:49:11;3.27;;;2.00;;
11135;SDS011;5622;50.840;4.948;2022-09-03T03:51:39;2.67;;;2.20;;
11135;SDS011;5622;50.840;4.948;2022-09-03T03:54:06;2.53;;;1.90;;
11135;SDS011;5622;50.840;4.948;2022-09-03T03:56:33;2.00;;;1.90;;
11135;SDS011;5622;50.840;4.948;2022-09-03T03:59:02;2.43;;;2.13;;
11135;SDS011;5622;50.840;4.948;2022-09-03T04:01:30;1.90;;;1.80;;
11135;SDS011;5622;50.840;4.948;2022-09-03T04:03:57;2.63;;;1.90;;
11135;SDS011;5622;50.840;4.948;2022-09-03T04:06:25;2.50;;;2.00;;
11135;SDS011;5622;50.840;4.948;2022-09-03T04:08:53;3.13;;;2.37;;
11135;SDS011;5622;50.840;4.948;2022-09-03T04:11:20;6.03;;;2.50;;
11135;SDS011;5622;50.840;4.948;2022-09-03T04:13:49;2.60;;;2.40;;
11135;SDS011;5622;50.840;4.948;2022-09-03T04:16:18;2.23;;;2.03;;
11135;SDS011;5622;50.840;4.948;2022-09-03T04:18:46;2.83;;;2.10;;
11135;SDS011;5622;50.840;4.948;2022-09-03T04:21:15;2.40;;;2.07;;
11135;SDS011;5622;50.840;4.948;2022-09-03T04:23:44;4.43;;;1.97;;
11135;SDS011;5622;50.840;4.948;2022-09-03T04:26:13;3.63;;;2.30;;
11135;SDS011;5622;50.840;4.948;2022-09-03T04:28:41;2.67;;;1.90;;
11135;SDS011;5622;50.840;4.948;2022-09-03T04:31:09;4.10;;;2.07;;
11135;SDS011;5622;50.840;4.948;2022-09-03T04:33:39;3.27;;;2.30;;
11135;SDS011;5622;50.840;4.948;2022-09-03T04:36:08;3.20;;;2.10;;
11135;SDS011;5622;50.840;4.948;2022-09-03T04:38:37;2.53;;;2.00;;
11135;SDS011;5622;50.840;4.948;2022-09-03T04:41:05;3.30;;;1.93;;
11135;SDS011;5622;50.840;4.948;2022-09-03T04:43:34;2.17;;;1.90;;
11135;SDS011;5622;50.840;4.948;2022-09-03T04:46:02;1.73;;;1.63;;
11135;SDS011;5622;50.840;4.948;2022-09-03T04:48:31;4.93;;;2.30;;
11135;SDS011;5622;50.840;4.948;2022-09-03T04:51:02;3.73;;;1.90;;
11135;SDS011;5622;50.840;4.948;2022-09-03T04:53:31;2.63;;;1.90;;
11135;SDS011;5622;50.840;4.948;2022-09-03T04:55:59;4.13;;;1.97;;
11135;SDS011;5622;50.840;4.948;2022-09-03T04:58:26;2.27;;;2.07;;
11135;SDS011;5622;50.840;4.948;2022-09-03T05:00:53;2.77;;;2.40;;
11135;SDS011;5622;50.840;4.948;2022-09-03T05:03:20;2.60;;;2.13;;
11135;SDS011;5622;50.840;4.948;2022-09-03T05:05:51;2.50;;;1.90;;
11135;SDS011;5622;50.840;4.948;2022-09-03T05:08:20;2.10;;;1.83;;
11135;SDS011;5622;50.840;4.948;2022-09-03T05:10:48;2.63;;;2.23;;
11135;SDS011;5622;50.840;4.948;2022-09-03T05:13:15;5.57;;;2.33;;
11135;SDS011;5622;50.840;4.948;2022-09-03T05:15:43;5.13;;;2.40;;
11135;SDS011;5622;50.840;4.948;2022-09-03T05:18:10;3.83;;;2.60;;
11135;SDS011;5622;50.840;4.948;2022-09-03T05:20:37;3.00;;;1.90;;
11135;SDS011;5622;50.840;4.948;2022-09-03T05:23:04;3.80;;;2.67;;
11135;SDS011;5622;50.840;4.948;2022-09-03T05:25:33;2.47;;;2.00;;
11135;SDS011;5622;50.840;4.948;2022-09-03T05:28:02;3.90;;;2.40;;
11135;SDS011;5622;50.840;4.948;2022-09-03T05:30:29;2.80;;;2.07;;
11135;SDS011;5622;50.840;4.948;2022-09-03T05:32:56;4.50;;;2.23;;
11135;SDS011;5622;50.840;4.948;2022-09-03T05:35:23;4.37;;;2.20;;
11135;SDS011;5622;50.840;4.948;2022-09-03T05:37:53;2.07;;;1.90;;
11135;SDS011;5622;50.840;4.948;2022-09-03T05:40:21;4.60;;;2.03;;
11135;SDS011;5622;50.840;4.948;2022-09-03T05:42:54;2.20;;;2.07;;
11135;SDS011;5622;50.840;4.948;2022-09-03T05:45:23;3.77;;;2.27;;
11135;SDS011;5622;50.840;4.948;2022-09-03T05:47:50;8.37;;;2.60;;
11135;SDS011;5622;50.840;4.948;2022-09-03T05:50:17;4.03;;;2.17;;
11135;SDS011;5622;50.840;4.948;2022-09-03T05:52:44;4.07;;;2.50;;
11135;SDS011;5622;50.840;4.948;2022-09-03T05:55:12;5.03;;;2.17;;
11135;SDS011;5622;50.840;4.948;2022-09-03T05:57:39;6.63;;;2.20;;
11135;SDS011;5622;50.840;4.948;2022-09-03T06:00:10;6.43;;;2.43;;
11135;SDS011;5622;50.840;4.948;2022-09-03T06:02:37;3.50;;;2.70;;
11135;SDS011;5622;50.840;4.948;2022-09-03T06:05:04;5.43;;;2.70;;
11135;SDS011;5622;50.840;4.948;2022-09-03T06:07:32;3.47;;;2.20;;
11135;SDS011;5622;50.840;4.948;2022-09-03T06:09:59;5.77;;;2.53;;
11135;SDS011;5622;50.840;4.948;2022-09-03T06:12:27;7.27;;;2.40;;
11135;SDS011;5622;50.840;4.948;2022-09-03T06:14:54;5.97;;;2.90;;
11135;SDS011;5622;50.840;4.948;2022-09-03T06:17:22;14.63;;;3.43;;
11135;SDS011;5622;50.840;4.948;2022-09-03T06:19:49;19.13;;;2.47;;
11135;SDS011;5622;50.840;4.948;2022-09-03T06:22:16;14.93;;;3.27;;
11135;SDS011;5622;50.840;4.948;2022-09-03T06:24:43;5.23;;;2.60;;
11135;SDS011;5622;50.840;4.948;2022-09-03T06:27:10;8.87;;;2.37;;
11135;SDS011;5622;50.840;4.948;2022-09-03T06:29:38;4.90;;;2.90;;
11135;SDS011;5622;50.840;4.948;2022-09-03T06:32:05;7.47;;;2.40;;
11135;SDS011;5622;50.840;4.948;2022-09-03T06:34:33;4.37;;;2.37;;
11135;SDS011;5622;50.840;4.948;2022-09-03T06:37:00;2.20;;;2.00;;
11135;SDS011;5622;50.840;4.948;2022-09-03T06:39:27;7.50;;;3.30;;
11135;SDS011;5622;50.840;4.948;2022-09-03T06:41:55;3.00;;;2.70;;
11135;SDS011;5622;50.840;4.948;2022-09-03T06:44:22;3.00;;;2.10;;
11135;SDS011;5622;50.840;4.948;2022-09-03T06:46:49;3.70;;;2.20;;
11135;SDS011;5622;50.840;4.948;2022-09-03T06:49:17;2.30;;;2.07;;
11135;SDS011;5622;50.840;4.948;2022-09-03T06:51:46;3.53;;;2.53;;
11135;SDS011;5622;50.840;4.948;2022-09-03T06:54:13;4.63;;;3.47;;
11135;SDS011;5622;50.840;4.948;2022-09-03T06:56:41;3.37;;;2.30;;
11135;SDS011;5622;50.840;4.948;2022-09-03T06:59:08;6.10;;;2.47;;
11135;SDS011;5622;50.840;4.948;2022-09-03T07:01:37;2.27;;;2.00;;
11135;SDS011;5622;50.840;4.948;2022-09-03T07:04:05;2.20;;;2.00;;
11135;SDS011;5622;50.840;4.948;2022-09-03T07:06:34;5.67;;;2.40;;
11135;SDS011;5622;50.840;4.948;2022-09-03T07:09:05;4.10;;;2.33;;
11135;SDS011;5622;50.840;4.948;2022-09-03T07:11:32;6.03;;;2.40;;
11135;SDS011;5622;50.840;4.948;2022-09-03T07:14:01;5.00;;;2.50;;
11135;SDS011;5622;50.840;4.948;2022-09-03T07:16:31;2.77;;;2.57;;
11135;SDS011;5622;50.840;4.948;2022-09-03T07:18:59;4.20;;;2.50;;
11135;SDS011;5622;50.840;4.948;2022-09-03T07:21:28;6.73;;;2.57;;
11135;SDS011;5622;50.840;4.948;2022-09-03T07:23:58;2.67;;;2.30;;
11135;SDS011;5622;50.840;4.948;2022-09-03T07:26:29;4.27;;;2.37;;
11135;SDS011;5622;50.840;4.948;2022-09-03T07:28:57;6.20;;;3.10;;
11135;SDS011;5622;50.840;4.948;2022-09-03T07:31:26;5.00;;;2.50;;
11135;SDS011;5622;50.840;4.948;2022-09-03T07:33:55;6.60;;;2.73;;
11135;SDS011;5622;50.840;4.948;2022-09-03T07:36:23;3.37;;;2.43;;
11135;SDS011;5622;50.840;4.948;2022-09-03T07:38:53;3.50;;;2.40;;
11135;SDS011;5622;50.840;4.948;2022-09-03T07:41:21;5.73;;;2.60;;
11135;SDS011;5622;50.840;4.948;2022-09-03T07:43:51;4.77;;;2.03;;
11135;SDS011;5622;50.840;4.948;2022-09-03T07:46:20;3.93;;;2.40;;
11135;SDS011;5622;50.840;4.948;2022-09-03T07:48:49;3.27;;;2.20;;
11135;SDS011;5622;50.840;4.948;2022-09-03T07:51:16;2.97;;;2.30;;
11135;SDS011;5622;50.840;4.948;2022-09-03T07:53:44;5.77;;;2.57;;
11135;SDS011;5622;50.840;4.948;2022-09-03T07:56:11;3.47;;;2.23;;
11135;SDS011;5622;50.840;4.948;2022-09-03T07:58:39;2.53;;;2.20;;
11135;SDS011;5622;50.840;4.948;2022-09-03T08:01:09;2.93;;;2.17;;
11135;SDS011;5622;50.840;4.948;2022-09-03T08:03:38;4.13;;;2.33;;
11135;SDS011;5622;50.840;4.948;2022-09-03T08:06:08;3.50;;;2.10;;
11135;SDS011;5622;50.840;4.948;2022-09-03T08:08:36;3.63;;;2.20;;
11135;SDS011;5622;50.840;4.948;2022-09-03T08:11:05;4.17;;;2.60;;
11135;SDS011;5622;50.840;4.948;2022-09-03T08:13:35;2.40;;;2.20;;
11135;SDS011;5622;50.840;4.948;2022-09-03T08:16:03;3.37;;;2.23;;
11135;SDS011;5622;50.840;4.948;2022-09-03T08:18:32;3.07;;;2.40;;
11135;SDS011;5622;50.840;4.948;2022-09-03T08:21:04;8.30;;;2.80;;
11135;SDS011;5622;50.840;4.948;2022-09-03T08:23:33;3.30;;;2.43;;
11135;SDS011;5622;50.840;4.948;2022-09-03T08:26:03;3.33;;;2.63;;
11135;SDS011;5622;50.840;4.948;2022-09-03T08:28:32;6.83;;;2.50;;
11135;SDS011;5622;50.840;4.948;2022-09-03T08:31:03;3.23;;;2.67;;
11135;SDS011;5622;50.840;4.948;2022-09-03T08:33:33;4.53;;;2.60;;
11135;SDS011;5622;50.840;4.948;2022-09-03T08:36:03;3.33;;;2.50;;
11135;SDS011;5622;50.840;4.948;2022-09-03T08:38:32;3.53;;;3.00;;
11135;SDS011;5622;50.840;4.948;2022-09-03T08:41:03;4.03;;;2.77;;
11135;SDS011;5622;50.840;4.948;2022-09-03T08:43:37;4.53;;;2.57;;
11135;SDS011;5622;50.840;4.948;2022-09-03T08:46:17;2.87;;;2.57;;
11135;SDS011;5622;50.840;4.948;2022-09-03T08:48:47;4.00;;;2.60;;
11135;SDS011;5622;50.840;4.948;2022-09-03T08:51:14;4.23;;;3.00;;
11135;SDS011;5622;50.840;4.948;2022-09-03T08:53:44;2.80;;;2.50;;
11135;SDS011;5622;50.840;4.948;2022-09-03T08:56:17;2.80;;;2.40;;
11135;SDS011;5622;50.840;4.948;2022-09-03T08:58:50;4.30;;;2.40;;
11135;SDS011;5622;50.840;4.948;2022-09-03T09:01:21;2.60;;;2.40;;
11135;SDS011;5622;50.840;4.948;2022-09-03T09:04:00;3.23;;;2.93;;
11135;SDS011;5622;50.840;4.948;2022-09-03T09:06:38;3.20;;;2.60;;
11135;SDS011;5622;50.840;4.948;2022-09-03T09:09:14;3.37;;;3.07;;
11135;SDS011;5622;50.840;4.948;2022-09-03T09:11:54;3.57;;;3.20;;
11135;SDS011;5622;50.840;4.948;2022-09-03T09:14:29;3.40;;;2.73;;
11135;SDS011;5622;50.840;4.948;2022-09-03T09:17:03;3.37;;;2.87;;
11135;SDS011;5622;50.840;4.948;2022-09-03T09:19:44;6.10;;;3.20;;
11135;SDS011;5622;50.840;4.948;2022-09-03T09:22:20;3.17;;;2.73;;
11135;SDS011;5622;50.840;4.948;2022-09-03T09:24:52;4.23;;;3.43;;
11135;SDS011;5622;50.840;4.948;2022-09-03T09:27:22;7.70;;;3.63;;
11135;SDS011;5622;50.840;4.948;2022-09-03T09:29:51;4.17;;;3.10;;
11135;SDS011;5622;50.840;4.948;2022-09-03T09:32:20;5.97;;;3.33;;
11135;SDS011;5622;50.840;4.948;2022-09-03T09:34:49;4.13;;;3.40;;
11135;SDS011;5622;50.840;4.948;2022-09-03T09:37:18;4.37;;;3.07;;
11135;SDS011;5622;50.840;4.948;2022-09-03T09:39:53;4.03;;;3.53;;
11135;SDS011;5622;50.840;4.948;2022-09-03T09:42:22;3.50;;;3.20;;
11135;SDS011;5622;50.840;4.948;2022-09-03T09:44:50;3.87;;;3.47;;
11135;SDS011;5622;50.840;4.948;2022-09-03T09:47:20;5.47;;;3.33;;
11135;SDS011;5622;50.840;4.948;2022-09-03T09:49:52;6.00;;;3.60;;
11135;SDS011;5622;50.840;4.948;2022-09-03T09:52:20;6.70;;;3.67;;
11135;SDS011;5622;50.840;4.948;2022-09-03T09:54:50;3.67;;;3.20;;
11135;SDS011;5622;50.840;4.948;2022-09-03T09:57:21;4.83;;;3.07;;
11135;SDS011;5622;50.840;4.948;2022-09-03T09:59:49;4.47;;;3.27;;
11135;SDS011;5622;50.840;4.948;2022-09-03T10:02:28;3.43;;;3.13;;
11135;SDS011;5622;50.840;4.948;2022-09-03T10:04:58;5.90;;;3.53;;
11135;SDS011;5622;50.840;4.948;2022-09-03T10:07:37;4.93;;;3.23;;
11135;SDS011;5622;50.840;4.948;2022-09-03T10:10:05;3.83;;;3.43;;
11135;SDS011;5622;50.840;4.948;2022-09-03T10:12:40;5.00;;;3.37;;
11135;SDS011;5622;50.840;4.948;2022-09-03T10:15:11;5.23;;;3.47;;
11135;SDS011;5622;50.840;4.948;2022-09-03T10:17:51;3.70;;;3.40;;
11135;SDS011;5622;50.840;4.948;2022-09-03T10:20:25;3.47;;;3.17;;
11135;SDS011;5622;50.840;4.948;2022-09-03T10:23:04;3.20;;;2.90;;
11135;SDS011;5622;50.840;4.948;2022-09-03T10:25:39;3.20;;;2.90;;
11135;SDS011;5622;50.840;4.948;2022-09-03T10:28:16;3.30;;;2.20;;
11135;SDS011;5622;50.840;4.948;2022-09-03T10:30:54;2.13;;;2.00;;
11135;SDS011;5622;50.840;4.948;2022-09-03T10:33:32;2.23;;;2.03;;
11135;SDS011;5622;50.840;4.948;2022-09-03T10:36:09;2.20;;;2.00;;
11135;SDS011;5622;50.840;4.948;2022-09-03T10:38:39;1.90;;;1.80;;
11135;SDS011;5622;50.840;4.948;2022-09-03T10:41:12;2.53;;;2.33;;
11135;SDS011;5622;50.840;4.948;2022-09-03T10:43:59;2.30;;;2.10;;
11135;SDS011;5622;50.840;4.948;2022-09-03T10:46:39;3.00;;;2.10;;
11135;SDS011;5622;50.840;4.948;2022-09-03T10:49:20;4.97;;;2.10;;
11135;SDS011;5622;50.840;4.948;2022-09-03T10:51:57;3.65;;;2.42;;
11135;SDS011;5622;50.840;4.948;2022-09-03T10:54:36;2.67;;;2.30;;
11135;SDS011;5622;50.840;4.948;2022-09-03T10:57:15;3.50;;;2.45;;
11135;SDS011;5622;50.840;4.948;2022-09-03T11:00:02;2.33;;;2.10;;
11135;SDS011;5622;50.840;4.948;2022-09-03T11:05:22;3.25;;;2.22;;
11135;SDS011;5622;50.840;4.948;2022-09-03T11:07:58;2.47;;;2.28;;
11135;SDS011;5622;50.840;4.948;2022-09-03T11:10:31;5.88;;;2.28;;
11135;SDS011;5622;50.840;4.948;2022-09-03T11:13:01;2.17;;;2.00;;
11135;SDS011;5622;50.840;4.948;2022-09-03T11:15:32;3.35;;;2.75;;
11135;SDS011;5622;50.840;4.948;2022-09-03T11:18:03;2.55;;;2.35;;
11135;SDS011;5622;50.840;4.948;2022-09-03T11:20:43;2.45;;;2.25;;
11135;SDS011;5622;50.840;4.948;2022-09-03T11:23:14;3.38;;;2.30;;
11135;SDS011;5622;50.840;4.948;2022-09-03T11:25:45;3.92;;;2.22;;
11135;SDS011;5622;50.840;4.948;2022-09-03T11:28:20;3.08;;;2.22;;
11135;SDS011;5622;50.840;4.948;2022-09-03T11:31:00;3.03;;;2.50;;
11135;SDS011;5622;50.840;4.948;2022-09-03T11:33:38;5.13;;;2.20;;
11135;SDS011;5622;50.840;4.948;2022-09-03T11:36:08;2.90;;;2.40;;
11135;SDS011;5622;50.840;4.948;2022-09-03T11:38:37;4.70;;;2.90;;
11135;SDS011;5622;50.840;4.948;2022-09-03T11:41:10;4.63;;;2.60;;
11135;SDS011;5622;50.840;4.948;2022-09-03T11:43:39;3.83;;;2.28;;
11135;SDS011;5622;50.840;4.948;2022-09-03T11:46:09;4.22;;;2.22;;
11135;SDS011;5622;50.840;4.948;2022-09-03T11:48:41;4.90;;;2.35;;
11135;SDS011;5622;50.840;4.948;2022-09-03T11:51:19;2.58;;;2.20;;
11135;SDS011;5622;50.840;4.948;2022-09-03T11:53:58;2.63;;;2.42;;
11135;SDS011;5622;50.840;4.948;2022-09-03T11:56:26;3.95;;;2.40;;
11135;SDS011;5622;50.840;4.948;2022-09-03T12:01:31;4.25;;;2.55;;
11135;SDS011;5622;50.840;4.948;2022-09-03T12:04:00;2.70;;;2.50;;
11135;SDS011;5622;50.840;4.948;2022-09-03T12:06:37;3.90;;;2.53;;
11135;SDS011;5622;50.840;4.948;2022-09-03T12:09:22;3.03;;;2.75;;
11135;SDS011;5622;50.840;4.948;2022-09-03T12:12:29;2.50;;;2.30;;
11135;SDS011;5622;50.840;4.948;2022-09-03T12:15:21;4.28;;;2.80;;
11135;SDS011;5622;50.840;4.948;2022-09-03T12:18:03;3.90;;;2.40;;
11135;SDS011;5622;50.840;4.948;2022-09-03T12:20:47;2.80;;;2.60;;
11135;SDS011;5622;50.840;4.948;2022-09-03T12:23:26;2.97;;;2.65;;
11135;SDS011;5622;50.840;4.948;2022-09-03T12:25:56;7.05;;;3.10;;
11135;SDS011;5622;50.840;4.948;2022-09-03T12:28:26;2.90;;;2.63;;
11135;SDS011;5622;50.840;4.948;2022-09-03T12:31:04;2.83;;;2.55;;
11135;SDS011;5622;50.840;4.948;2022-09-03T12:33:46;5.47;;;3.67;;
11135;SDS011;5622;50.840;4.948;2022-09-03T12:36:18;7.28;;;3.20;;
11135;SDS011;5622;50.840;4.948;2022-09-03T12:38:47;3.38;;;3.08;;
11135;SDS011;5622;50.840;4.948;2022-09-03T12:41:23;3.40;;;3.03;;
11135;SDS011;5622;50.840;4.948;2022-09-03T12:43:52;4.07;;;3.33;;
11135;SDS011;5622;50.840;4.948;2022-09-03T12:46:21;3.20;;;2.90;;
11135;SDS011;5622;50.840;4.948;2022-09-03T12:48:53;3.47;;;3.08;;
11135;SDS011;5622;50.840;4.948;2022-09-03T12:51:23;3.63;;;2.95;;
11135;SDS011;5622;50.840;4.948;2022-09-03T12:53:50;5.80;;;3.22;;
11135;SDS011;5622;50.840;4.948;2022-09-03T12:56:19;3.17;;;2.88;;
11135;SDS011;5622;50.840;4.948;2022-09-03T12:58:52;3.97;;;3.33;;
11135;SDS011;5622;50.840;4.948;2022-09-03T13:01:23;3.50;;;3.20;;
11135;SDS011;5622;50.840;4.948;2022-09-03T13:03:57;3.53;;;3.22;;
11135;SDS011;5622;50.840;4.948;2022-09-03T13:06:32;3.50;;;3.20;;
11135;SDS011;5622;50.840;4.948;2022-09-03T13:09:05;3.60;;;3.30;;
11135;SDS011;5622;50.840;4.948;2022-09-03T13:11:35;4.53;;;3.22;;
11135;SDS011;5622;50.840;4.948;2022-09-03T13:14:03;3.83;;;3.45;;
11135;SDS011;5622;50.840;4.948;2022-09-03T13:19:47;3.20;;;2.90;;
11135;SDS011;5622;50.840;4.948;2022-09-03T13:22:25;2.90;;;2.70;;
11135;SDS011;5622;50.840;4.948;2022-09-03T13:25:08;3.35;;;3.00;;
11135;SDS011;5622;50.840;4.948;2022-09-03T13:27:43;4.50;;;3.35;;
11135;SDS011;5622;50.840;4.948;2022-09-03T13:30:20;5.78;;;3.55;;
11135;SDS011;5622;50.840;4.948;2022-09-03T13:32:54;4.97;;;3.55;;
11135;SDS011;5622;50.840;4.948;2022-09-03T13:35:28;5.47;;;3.10;;
11135;SDS011;5622;50.840;4.948;2022-09-03T13:38:03;4.22;;;3.15;;
11135;SDS011;5622;50.840;4.948;2022-09-03T13:40:36;5.78;;;3.30;;
11135;SDS011;5622;50.840;4.948;2022-09-03T13:43:18;4.03;;;3.63;;
11135;SDS011;5622;50.840;4.948;2022-09-03T13:45:51;3.97;;;3.25;;
11135;SDS011;5622;50.840;4.948;2022-09-03T13:48:27;5.20;;;4.15;;
11135;SDS011;5622;50.840;4.948;2022-09-03T13:51:16;3.95;;;3.45;;
11135;SDS011;5622;50.840;4.948;2022-09-03T13:53:49;4.10;;;2.90;;
11135;SDS011;5622;50.840;4.948;2022-09-03T13:56:31;3.15;;;2.85;;
11135;SDS011;5622;50.840;4.948;2022-09-03T13:59:12;3.50;;;3.08;;
11135;SDS011;5622;50.840;4.948;2022-09-03T14:01:52;3.65;;;3.03;;
11135;SDS011;5622;50.840;4.948;2022-09-03T14:04:28;3.33;;;2.83;;
11135;SDS011;5622;50.840;4.948;2022-09-03T14:07:10;3.37;;;3.07;;
11135;SDS011;5622;50.840;4.948;2022-09-03T14:09:41;3.60;;;3.17;;
11135;SDS011;5622;50.840;4.948;2022-09-03T14:12:17;4.27;;;3.17;;
11135;SDS011;5622;50.840;4.948;2022-09-03T14:14:52;6.18;;;3.80;;
11135;SDS011;5622;50.840;4.948;2022-09-03T14:17:29;3.70;;;3.13;;
11135;SDS011;5622;50.840;4.948;2022-09-03T14:20:03;5.25;;;3.53;;
11135;SDS011;5622;50.840;4.948;2022-09-03T14:22:41;5.15;;;3.60;;
11135;SDS011;5622;50.840;4.948;2022-09-03T14:25:14;3.42;;;3.13;;
11135;SDS011;5622;50.840;4.948;2022-09-03T14:27:44;4.10;;;3.50;;
11135;SDS011;5622;50.840;4.948;2022-09-03T14:33:05;5.10;;;3.20;;
11135;SDS011;5622;50.840;4.948;2022-09-03T14:35:47;3.50;;;3.20;;
11135;SDS011;5622;50.840;4.948;2022-09-03T14:44:34;3.85;;;3.40;;
11135;SDS011;5622;50.840;4.948;2022-09-03T14:47:21;5.35;;;3.60;;
11135;SDS011;5622;50.840;4.948;2022-09-03T14:50:07;4.65;;;3.72;;
11135;SDS011;5622;50.840;4.948;2022-09-03T14:52:51;4.45;;;3.35;;
11135;SDS011;5622;50.840;4.948;2022-09-03T14:55:47;3.92;;;3.33;;
11135;SDS011;5622;50.840;4.948;2022-09-03T14:58:32;3.30;;;3.10;;
11135;SDS011;5622;50.840;4.948;2022-09-03T15:01:09;3.78;;;3.45;;
11135;SDS011;5622;50.840;4.948;2022-09-03T15:03:54;5.00;;;3.50;;
11135;SDS011;5622;50.840;4.948;2022-09-03T15:06:46;3.60;;;3.30;;
11135;SDS011;5622;50.840;4.948;2022-09-03T15:09:27;6.20;;;3.33;;
11135;SDS011;5622;50.840;4.948;2022-09-03T15:12:02;3.72;;;3.42;;
11135;SDS011;5622;50.840;4.948;2022-09-03T15:14:37;3.92;;;3.53;;
11135;SDS011;5622;50.840;4.948;2022-09-03T15:17:18;4.00;;;3.58;;
11135;SDS011;5622;50.840;4.948;2022-09-03T15:19:59;5.63;;;3.55;;
11135;SDS011;5622;50.840;4.948;2022-09-03T15:25:49;5.38;;;3.33;;
11135;SDS011;5622;50.840;4.948;2022-09-03T15:28:32;6.07;;;3.30;;
11135;SDS011;5622;50.840;4.948;2022-09-03T15:31:09;3.55;;;3.20;;
11135;SDS011;5622;50.840;4.948;2022-09-03T15:33:46;4.13;;;2.95;;
11135;SDS011;5622;50.840;4.948;2022-09-03T15:36:22;4.25;;;3.08;;
11135;SDS011;5622;50.840;4.948;2022-09-03T15:38:54;4.15;;;3.20;;
11135;SDS011;5622;50.840;4.948;2022-09-03T15:41:35;3.30;;;3.00;;
11135;SDS011;5622;50.840;4.948;2022-09-03T15:44:07;3.50;;;3.20;;
11135;SDS011;5622;50.840;4.948;2022-09-03T15:46:44;4.40;;;3.47;;
11135;SDS011;5622;50.840;4.948;2022-09-03T15:49:17;3.85;;;3.20;;
11135;SDS011;5622;50.840;4.948;2022-09-03T15:51:57;3.33;;;3.03;;
11135;SDS011;5622;50.840;4.948;2022-09-03T15:54:34;3.42;;;2.80;;
11135;SDS011;5622;50.840;4.948;2022-09-03T15:57:09;4.37;;;2.90;;